Time;durP1;ratioP1;P1;durP2;ratioP2;P2;SDS_P1;SDS_P2;PMS_P1;PMS_P2;Temp;Humidity;BMP_temperature;BMP_pressure;BME280_temperature;BME280_humidity;BME280_pressure;Samples;Min_cycle;Max_cycle;Signal;HPM_P1;HPM_P2
2023/09/22 00:00:24;;;;;;;5.80;2.83;;;;;;;;;;5060874;28;20475;-79
2023/09/22 00:02:51;;;;;;;4.87;2.50;;;;;;;;;;5059914;28;20456;-80
2023/09/22 00:05:19;;;;;;;3.17;2.87;;;;;;;;;;5062167;28;20499;-79
2023/09/22 00:07:46;;;;;;;5.73;2.80;;;;;;;;;;5061526;28;20456;-79
2023/09/22 00:10:13;;;;;;;3.97;2.77;;;;;;;;;;5064724;28;20563;-79
2023/09/22 00:12:41;;;;;;;2.60;2.40;;;;;;;;;;5063718;28;20456;-78
2023/09/22 00:15:10;;;;;;;8.40;2.30;;;;;;;;;;5065228;28;20963;-79
2023/09/22 00:17:38;;;;;;;4.33;2.40;;;;;;;;;;5068477;28;20835;-79
2023/09/22 00:20:08;;;;;;;6.93;1.87;;;;;;;;;;5066495;28;20468;-79
2023/09/22 00:22:35;;;;;;;2.50;1.60;;;;;;;;;;5065012;28;20894;-79
2023/09/22 00:25:02;;;;;;;8.03;1.80;;;;;;;;;;5066343;28;20488;-79
2023/09/22 00:27:29;;;;;;;2.80;1.30;;;;;;;;;;5062041;28;20510;-80
2023/09/22 00:29:56;;;;;;;1.30;1.00;;;;;;;;;;5064901;28;20479;-79
2023/09/22 00:32:23;;;;;;;2.20;1.27;;;;;;;;;;5060590;28;20449;-79
2023/09/22 00:34:52;;;;;;;4.30;1.47;;;;;;;;;;5063651;28;20543;-80
2023/09/22 00:37:19;;;;;;;3.00;1.00;;;;;;;;;;5067830;28;20509;-79
2023/09/22 00:39:46;;;;;;;1.97;0.97;;;;;;;;;;5066919;28;20874;-79
2023/09/22 00:42:13;;;;;;;1.83;1.17;;;;;;;;;;5064492;28;20965;-80
2023/09/22 00:44:40;;;;;;;1.40;1.00;;;;;;;;;;5067088;28;20445;-79
2023/09/22 00:47:08;;;;;;;1.30;1.10;;;;;;;;;;5070321;28;20436;-79
2023/09/22 00:49:36;;;;;;;5.83;1.27;;;;;;;;;;5061803;28;20510;-79
2023/09/22 00:52:05;;;;;;;1.70;1.07;;;;;;;;;;5064273;28;20487;-79
2023/09/22 00:54:32;;;;;;;1.30;0.90;;;;;;;;;;5079987;28;20832;-79
2023/09/22 00:57:00;;;;;;;1.60;1.10;;;;;;;;;;5063744;28;20447;-79
2023/09/22 00:59:27;;;;;;;1.70;1.00;;;;;;;;;;5063426;28;20453;-78
2023/09/22 01:01:55;;;;;;;1.37;1.00;;;;;;;;;;5066853;28;20443;-79
2023/09/22 01:04:22;;;;;;;2.80;1.00;;;;;;;;;;5081849;28;20452;-79
2023/09/22 01:06:49;;;;;;;1.40;1.00;;;;;;;;;;5083156;28;20502;-79
2023/09/22 01:09:18;;;;;;;1.40;1.10;;;;;;;;;;5081751;28;20451;-79
2023/09/22 01:11:45;;;;;;;1.77;1.00;;;;;;;;;;5080965;28;20463;-79
2023/09/22 01:14:12;;;;;;;1.70;1.00;;;;;;;;;;5077533;28;20452;-79
2023/09/22 01:16:39;;;;;;;1.70;1.03;;;;;;;;;;5075095;28;20819;-79
2023/09/22 01:19:14;;;;;;;1.97;0.93;;;;;;;;;;5059840;28;20456;-80
2023/09/22 01:21:42;;;;;;;1.30;0.90;;;;;;;;;;5065423;28;20468;-80
2023/09/22 01:24:11;;;;;;;4.37;1.07;;;;;;;;;;5067189;28;20445;-79
2023/09/22 01:26:38;;;;;;;2.27;1.43;;;;;;;;;;5068711;28;20491;-79
2023/09/22 01:29:06;;;;;;;1.30;0.90;;;;;;;;;;5077693;28;20443;-80
2023/09/22 01:31:33;;;;;;;2.80;0.90;;;;;;;;;;5074970;28;20479;-80
2023/09/22 01:34:01;;;;;;;1.97;1.10;;;;;;;;;;5064996;28;20440;-79
2023/09/22 01:36:29;;;;;;;4.23;0.90;;;;;;;;;;5071592;28;20492;-80
2023/09/22 01:38:59;;;;;;;2.23;0.80;;;;;;;;;;5066163;28;20454;-80
2023/09/22 01:41:26;;;;;;;1.30;1.00;;;;;;;;;;5066680;28;20480;-79
2023/09/22 01:43:53;;;;;;;6.50;1.10;;;;;;;;;;5063674;28;20453;-79
2023/09/22 01:46:20;;;;;;;1.20;0.83;;;;;;;;;;5066664;28;20580;-78
2023/09/22 01:48:48;;;;;;;1.20;0.90;;;;;;;;;;5060759;28;20457;-78
2023/09/22 01:51:17;;;;;;;1.80;1.00;;;;;;;;;;5058564;28;20459;-78
2023/09/22 01:53:44;;;;;;;1.67;0.90;;;;;;;;;;5079310;28;20494;-78
2023/09/22 01:56:12;;;;;;;1.50;0.80;;;;;;;;;;5068511;28;20445;-79
2023/09/22 01:58:39;;;;;;;2.33;0.80;;;;;;;;;;5065305;28;20453;-79
2023/09/22 02:01:07;;;;;;;1.30;0.87;;;;;;;;;;5057196;28;20477;-79
2023/09/22 02:03:34;;;;;;;1.40;1.00;;;;;;;;;;5056587;28;20453;-80
2023/09/22 02:06:03;;;;;;;1.40;1.03;;;;;;;;;;5065270;28;20541;-80
2023/09/22 02:08:30;;;;;;;2.33;1.00;;;;;;;;;;5057153;28;20883;-79
2023/09/22 02:10:57;;;;;;;1.30;0.80;;;;;;;;;;5056548;28;20484;-80
2023/09/22 02:13:25;;;;;;;1.40;1.00;;;;;;;;;;5066295;28;20460;-79
2023/09/22 02:15:53;;;;;;;2.17;1.37;;;;;;;;;;5077536;28;20456;-79
2023/09/22 02:18:23;;;;;;;1.20;1.00;;;;;;;;;;5069715;28;20484;-80
2023/09/22 02:20:50;;;;;;;2.10;1.60;;;;;;;;;;5076587;28;20460;-80
2023/09/22 02:23:17;;;;;;;1.60;1.10;;;;;;;;;;5068217;28;20456;-79
2023/09/22 02:25:44;;;;;;;1.30;0.80;;;;;;;;;;5058246;28;20962;-79
2023/09/22 02:28:12;;;;;;;1.30;0.90;;;;;;;;;;5065352;28;20444;-79
2023/09/22 02:30:40;;;;;;;1.23;0.90;;;;;;;;;;5060459;28;20464;-80
2023/09/22 02:33:09;;;;;;;1.60;1.10;;;;;;;;;;5069239;28;20445;-79
2023/09/22 02:35:36;;;;;;;2.13;0.87;;;;;;;;;;5059476;28;20934;-79
2023/09/22 02:38:03;;;;;;;1.30;1.10;;;;;;;;;;5075948;28;20462;-79
2023/09/22 02:40:30;;;;;;;8.97;1.20;;;;;;;;;;5064683;28;20483;-80
2023/09/22 02:42:58;;;;;;;3.83;1.93;;;;;;;;;;5061738;28;20467;-80
2023/09/22 02:45:25;;;;;;;3.47;1.40;;;;;;;;;;5066700;28;20456;-79
2023/09/22 02:47:54;;;;;;;1.47;1.23;;;;;;;;;;5075378;28;20447;-78
2023/09/22 02:50:21;;;;;;;1.30;0.97;;;;;;;;;;5067089;28;20876;-80
2023/09/22 02:52:48;;;;;;;1.30;1.00;;;;;;;;;;5063933;28;20555;-80
2023/09/22 02:55:16;;;;;;;1.23;0.80;;;;;;;;;;5064233;28;20456;-79
2023/09/22 02:57:45;;;;;;;1.30;0.90;;;;;;;;;;5056077;28;20838;-80
2023/09/22 03:00:14;;;;;;;1.53;1.03;;;;;;;;;;5063137;28;20518;-80
2023/09/22 03:02:42;;;;;;;2.40;1.10;;;;;;;;;;5064533;28;20512;-80
2023/09/22 03:05:14;;;;;;;1.70;1.10;;;;;;;;;;5065310;28;20429;-80
2023/09/22 03:07:41;;;;;;;3.40;1.57;;;;;;;;;;5069135;28;20526;-80
2023/09/22 03:10:10;;;;;;;1.63;1.27;;;;;;;;;;5069083;28;20485;-79
2023/09/22 03:12:37;;;;;;;1.30;1.00;;;;;;;;;;5074302;28;20875;-80
2023/09/22 03:15:05;;;;;;;6.17;1.23;;;;;;;;;;5064699;28;20454;-80
2023/09/22 03:17:32;;;;;;;1.60;1.00;;;;;;;;;;5065022;28;20881;-79
2023/09/22 03:19:59;;;;;;;1.83;1.30;;;;;;;;;;5061092;28;20472;-79
2023/09/22 03:22:28;;;;;;;1.50;1.13;;;;;;;;;;5064354;28;20914;-79
2023/09/22 03:24:55;;;;;;;1.47;1.03;;;;;;;;;;5063378;28;20440;-79
2023/09/22 03:27:23;;;;;;;2.30;1.00;;;;;;;;;;5063522;28;20488;-77
2023/09/22 03:29:50;;;;;;;1.87;1.10;;;;;;;;;;5060406;28;20489;-78
2023/09/22 03:32:18;;;;;;;2.07;1.40;;;;;;;;;;5075384;28;20455;-79
2023/09/22 03:34:47;;;;;;;1.93;1.10;;;;;;;;;;5056222;28;20482;-80
2023/09/22 03:37:14;;;;;;;1.63;1.27;;;;;;;;;;5056801;28;20443;-79
2023/09/22 03:39:43;;;;;;;1.87;1.30;;;;;;;;;;5059763;28;20459;-80
2023/09/22 03:42:13;;;;;;;6.60;3.80;;;;;;;;;;5068249;28;20463;-80
2023/09/22 03:44:41;;;;;;;10.10;4.80;;;;;;;;;;5063894;28;20441;-80
2023/09/22 03:47:08;;;;;;;5.10;3.40;;;;;;;;;;5063792;28;20485;-79
2023/09/22 03:49:35;;;;;;;4.40;3.60;;;;;;;;;;5063035;28;20472;-79
2023/09/22 03:52:04;;;;;;;3.10;2.53;;;;;;;;;;5055807;28;20445;-79
2023/09/22 03:54:31;;;;;;;1.70;1.50;;;;;;;;;;5057300;28;20982;-80
2023/09/22 03:57:00;;;;;;;2.53;0.90;;;;;;;;;;5075763;28;20459;-79
2023/09/22 03:59:27;;;;;;;1.50;1.20;;;;;;;;;;5064776;28;20464;-79
2023/09/22 04:01:55;;;;;;;1.53;1.20;;;;;;;;;;5054887;28;20908;-80
2023/09/22 04:04:22;;;;;;;2.17;1.63;;;;;;;;;;5064113;28;20530;-80
2023/09/22 04:06:50;;;;;;;1.80;1.20;;;;;;;;;;5062180;28;20492;-80
2023/09/22 04:09:17;;;;;;;2.50;0.90;;;;;;;;;;5062763;28;20470;-79
2023/09/22 04:11:44;;;;;;;1.70;1.03;;;;;;;;;;5066755;28;20856;-80
2023/09/22 04:14:13;;;;;;;2.00;1.50;;;;;;;;;;5068823;28;20472;-79
2023/09/22 04:16:40;;;;;;;1.37;1.00;;;;;;;;;;5058240;28;20452;-80
2023/09/22 04:19:09;;;;;;;1.30;0.90;;;;;;;;;;5075317;28;20563;-80
2023/09/22 04:21:42;;;;;;;1.60;1.13;;;;;;;;;;5076236;28;20471;-80
2023/09/22 04:24:11;;;;;;;1.30;0.90;;;;;;;;;;5076034;28;20815;-80
2023/09/22 04:26:42;;;;;;;1.87;1.43;;;;;;;;;;5072326;28;20496;-80
2023/09/22 04:29:10;;;;;;;1.60;1.07;;;;;;;;;;5054990;28;20907;-79
2023/09/22 04:31:38;;;;;;;3.33;1.00;;;;;;;;;;5071826;28;20473;-79
2023/09/22 04:34:05;;;;;;;1.60;1.10;;;;;;;;;;5065473;28;20444;-79
2023/09/22 04:36:33;;;;;;;1.20;1.00;;;;;;;;;;5069026;28;20442;-79
2023/09/22 04:39:01;;;;;;;1.50;1.10;;;;;;;;;;5072367;28;20459;-79
2023/09/22 04:41:29;;;;;;;5.63;1.30;;;;;;;;;;5058679;28;20545;-79
2023/09/22 04:43:57;;;;;;;1.67;1.20;;;;;;;;;;5067259;28;20448;-80
2023/09/22 04:46:24;;;;;;;4.57;1.37;;;;;;;;;;5059400;28;20480;-80
2023/09/22 04:48:54;;;;;;;2.43;1.50;;;;;;;;;;5067237;28;20817;-80
2023/09/22 04:51:21;;;;;;;2.90;1.73;;;;;;;;;;5066798;28;20467;-80
2023/09/22 04:53:49;;;;;;;1.40;1.10;;;;;;;;;;5058762;28;20461;-80
2023/09/22 04:56:16;;;;;;;6.23;1.90;;;;;;;;;;5067316;28;20464;-79
2023/09/22 04:58:44;;;;;;;2.33;1.83;;;;;;;;;;5071412;28;20799;-79
2023/09/22 05:01:11;;;;;;;2.53;2.20;;;;;;;;;;5071450;28;20480;-79
2023/09/22 05:03:39;;;;;;;3.27;2.53;;;;;;;;;;5059487;28;20480;-79
2023/09/22 05:06:09;;;;;;;6.83;3.30;;;;;;;;;;5066062;28;20491;-79
2023/09/22 05:08:37;;;;;;;3.53;1.77;;;;;;;;;;5078132;28;20444;-79
2023/09/22 05:11:05;;;;;;;3.57;1.73;;;;;;;;;;5061869;28;20891;-79
2023/09/22 05:13:33;;;;;;;2.03;1.70;;;;;;;;;;5067862;28;20490;-79
2023/09/22 05:16:08;;;;;;;3.33;1.20;;;;;;;;;;5072750;28;20441;-79
2023/09/22 05:18:35;;;;;;;2.77;1.70;;;;;;;;;;5077334;28;20941;-78
2023/09/22 05:21:02;;;;;;;1.83;1.47;;;;;;;;;;5077366;28;20479;-79
2023/09/22 05:23:32;;;;;;;2.30;1.63;;;;;;;;;;5075385;28;20529;-78
2023/09/22 05:26:00;;;;;;;1.87;1.33;;;;;;;;;;5058365;28;20852;-79
2023/09/22 05:28:27;;;;;;;3.00;1.70;;;;;;;;;;5057463;28;20484;-79
2023/09/22 05:30:54;;;;;;;3.20;1.40;;;;;;;;;;5056343;28;20472;-79
2023/09/22 05:33:21;;;;;;;2.03;1.30;;;;;;;;;;5064604;28;20461;-78
2023/09/22 05:35:49;;;;;;;2.50;1.47;;;;;;;;;;5057145;28;20806;-79
2023/09/22 05:38:16;;;;;;;2.93;1.40;;;;;;;;;;5056779;28;20463;-79
2023/09/22 05:40:45;;;;;;;1.70;1.40;;;;;;;;;;5059974;28;20472;-78
2023/09/22 05:43:14;;;;;;;2.40;1.27;;;;;;;;;;5076536;28;20478;-79
2023/09/22 05:45:41;;;;;;;2.63;1.30;;;;;;;;;;5067989;28;20466;-79
2023/09/22 05:48:09;;;;;;;4.33;2.57;;;;;;;;;;5068614;28;20534;-79
2023/09/22 05:50:36;;;;;;;12.27;3.93;;;;;;;;;;5058457;28;20476;-79
2023/09/22 05:53:04;;;;;;;2.33;1.40;;;;;;;;;;5068069;28;20554;-79
2023/09/22 05:55:33;;;;;;;2.87;1.53;;;;;;;;;;5057558;28;20472;-78
2023/09/22 05:58:01;;;;;;;1.43;1.10;;;;;;;;;;5057826;28;20453;-79
2023/09/22 06:00:31;;;;;;;1.50;1.10;;;;;;;;;;5079381;28;20460;-78
2023/09/22 06:02:58;;;;;;;1.90;1.50;;;;;;;;;;5083320;28;20451;-79
2023/09/22 06:05:27;;;;;;;3.53;1.43;;;;;;;;;;5064910;28;20456;-79
2023/09/22 06:07:55;;;;;;;1.83;1.30;;;;;;;;;;5065049;28;21017;-79
2023/09/22 06:10:24;;;;;;;1.40;1.10;;;;;;;;;;5061952;28;20477;-79
2023/09/22 06:12:51;;;;;;;1.93;1.20;;;;;;;;;;5059701;28;20526;-78
2023/09/22 06:15:20;;;;;;;1.73;1.27;;;;;;;;;;5064438;28;20460;-78
2023/09/22 06:17:48;;;;;;;1.60;1.20;;;;;;;;;;5062550;28;20463;-78
2023/09/22 06:20:16;;;;;;;4.20;1.40;;;;;;;;;;5061484;28;20588;-79
2023/09/22 06:22:43;;;;;;;1.70;1.40;;;;;;;;;;5061821;28;20531;-78
2023/09/22 06:25:12;;;;;;;2.00;1.40;;;;;;;;;;5080468;28;20957;-78
2023/09/22 06:27:39;;;;;;;9.80;1.47;;;;;;;;;;5084073;28;20531;-78
2023/09/22 06:30:11;;;;;;;2.13;1.30;;;;;;;;;;5082734;28;20482;-78
2023/09/22 06:32:41;;;;;;;2.50;1.30;;;;;;;;;;5077048;28;20829;-78
2023/09/22 06:35:10;;;;;;;1.70;1.17;;;;;;;;;;5085523;28;20438;-78
2023/09/22 06:37:37;;;;;;;2.77;2.03;;;;;;;;;;5084393;28;20501;-78
2023/09/22 06:40:10;;;;;;;2.60;1.93;;;;;;;;;;5084661;28;20467;-78
2023/09/22 06:42:38;;;;;;;2.63;1.73;;;;;;;;;;5084466;28;20451;-78
2023/09/22 06:45:06;;;;;;;2.83;1.40;;;;;;;;;;5084023;28;20520;-78
2023/09/22 06:47:34;;;;;;;2.00;1.40;;;;;;;;;;5081896;28;20495;-78
2023/09/22 06:50:06;;;;;;;2.10;1.30;;;;;;;;;;5083635;28;20501;-78
2023/09/22 06:52:33;;;;;;;2.70;1.20;;;;;;;;;;5081037;28;20487;-78
2023/09/22 06:55:01;;;;;;;1.90;1.60;;;;;;;;;;5079334;28;20942;-79
2023/09/22 06:57:28;;;;;;;3.73;1.83;;;;;;;;;;5055994;28;20445;-79
2023/09/22 06:59:56;;;;;;;2.07;1.40;;;;;;;;;;5068472;28;20506;-79
2023/09/22 07:02:23;;;;;;;2.87;1.30;;;;;;;;;;5073863;28;20478;-79
2023/09/22 07:04:50;;;;;;;1.60;1.20;;;;;;;;;;5063624;28;20467;-79
2023/09/22 07:07:19;;;;;;;2.73;1.97;;;;;;;;;;5064151;28;20513;-79
2023/09/22 07:09:46;;;;;;;2.77;2.17;;;;;;;;;;5062995;28;20457;-80
2023/09/22 07:12:13;;;;;;;2.67;1.60;;;;;;;;;;5056497;28;20542;-80
2023/09/22 07:14:41;;;;;;;11.57;1.80;;;;;;;;;;5064298;28;20532;-79
2023/09/22 07:17:08;;;;;;;2.87;1.73;;;;;;;;;;5063462;28;20513;-80
2023/09/22 07:19:39;;;;;;;1.93;1.40;;;;;;;;;;5073448;28;20838;-80
2023/09/22 07:22:06;;;;;;;1.87;1.33;;;;;;;;;;5057179;28;20888;-80
2023/09/22 07:24:35;;;;;;;2.00;1.40;;;;;;;;;;5067346;28;20454;-80
2023/09/22 07:27:02;;;;;;;2.00;1.30;;;;;;;;;;5077050;28;21010;-80
2023/09/22 07:29:30;;;;;;;2.50;1.20;;;;;;;;;;5066690;28;20503;-80
2023/09/22 07:31:57;;;;;;;1.97;1.43;;;;;;;;;;5063002;28;20795;-80
2023/09/22 07:34:24;;;;;;;1.87;1.10;;;;;;;;;;5071991;28;21072;-76
2023/09/22 07:36:51;;;;;;;2.07;1.20;;;;;;;;;;5064804;28;20463;-76
2023/09/22 07:39:19;;;;;;;1.97;1.47;;;;;;;;;;5062910;28;20498;-76
2023/09/22 07:41:47;;;;;;;2.10;1.40;;;;;;;;;;5071381;28;20567;-76
2023/09/22 07:44:18;;;;;;;2.97;1.20;;;;;;;;;;5063469;28;20464;-76
2023/09/22 07:46:45;;;;;;;2.73;1.80;;;;;;;;;;5060007;28;20464;-76
2023/09/22 07:49:12;;;;;;;3.33;2.43;;;;;;;;;;5058918;28;20496;-76
2023/09/22 07:51:40;;;;;;;2.17;1.30;;;;;;;;;;5063143;28;20479;-76
2023/09/22 07:54:08;;;;;;;4.00;2.73;;;;;;;;;;5062958;28;20887;-76
2023/09/22 07:56:35;;;;;;;1.80;1.40;;;;;;;;;;5060326;28;20464;-76
2023/09/22 07:59:04;;;;;;;3.13;1.30;;;;;;;;;;5059526;28;20456;-75
2023/09/22 08:01:31;;;;;;;1.80;1.30;;;;;;;;;;5059384;28;20479;-76
2023/09/22 08:03:58;;;;;;;2.90;1.30;;;;;;;;;;5060098;28;20918;-76
2023/09/22 08:06:27;;;;;;;1.93;1.33;;;;;;;;;;5059433;28;20600;-76
2023/09/22 08:08:54;;;;;;;2.50;1.67;;;;;;;;;;5058613;28;20783;-76
2023/09/22 08:11:21;;;;;;;2.20;1.47;;;;;;;;;;5065728;28;20487;-76
2023/09/22 08:13:48;;;;;;;2.60;1.40;;;;;;;;;;5059766;28;20817;-76
2023/09/22 08:16:17;;;;;;;2.20;1.47;;;;;;;;;;5066621;28;20451;-75
2023/09/22 08:18:44;;;;;;;1.63;1.23;;;;;;;;;;5066503;28;20551;-75
2023/09/22 08:21:12;;;;;;;1.90;1.10;;;;;;;;;;5058602;28;20472;-75
2023/09/22 08:23:40;;;;;;;2.00;1.33;;;;;;;;;;5058118;28;20520;-76
2023/09/22 08:26:07;;;;;;;1.70;1.40;;;;;;;;;;5059360;28;20461;-76
2023/09/22 08:28:37;;;;;;;3.23;1.83;;;;;;;;;;5062707;28;20504;-77
2023/09/22 08:31:07;;;;;;;1.90;1.57;;;;;;;;;;5063322;28;20982;-75
2023/09/22 08:33:36;;;;;;;2.37;1.60;;;;;;;;;;5065276;28;20457;-75
2023/09/22 08:36:03;;;;;;;4.67;3.37;;;;;;;;;;5066452;28;20873;-76
2023/09/22 08:38:30;;;;;;;3.13;2.07;;;;;;;;;;5064256;28;20462;-76
2023/09/22 08:40:58;;;;;;;2.83;1.90;;;;;;;;;;5063238;28;20559;-76
2023/09/22 08:43:25;;;;;;;2.27;1.40;;;;;;;;;;5063669;28;20470;-77
2023/09/22 08:45:52;;;;;;;3.80;1.80;;;;;;;;;;5063594;28;20453;-77
2023/09/22 08:48:20;;;;;;;2.40;2.00;;;;;;;;;;5062872;28;20492;-77
2023/09/22 08:50:48;;;;;;;3.33;2.23;;;;;;;;;;5058290;28;20475;-76
2023/09/22 08:53:16;;;;;;;2.50;2.30;;;;;;;;;;5065934;28;20463;-76
2023/09/22 08:55:43;;;;;;;4.00;1.93;;;;;;;;;;5062341;28;20530;-76
2023/09/22 08:58:10;;;;;;;6.00;2.07;;;;;;;;;;5062486;28;20460;-76
2023/09/22 09:00:38;;;;;;;3.10;2.50;;;;;;;;;;5056999;28;20855;-77
2023/09/22 09:03:09;;;;;;;8.13;5.20;;;;;;;;;;5058946;28;20456;-78
2023/09/22 09:05:36;;;;;;;4.13;3.00;;;;;;;;;;5065057;28;20452;-77
2023/09/22 09:08:12;;;;;;;3.20;2.80;;;;;;;;;;5065694;28;20495;-76
2023/09/22 09:10:40;;;;;;;3.87;1.70;;;;;;;;;;5062076;28;20468;-77
2023/09/22 09:13:08;;;;;;;3.50;1.83;;;;;;;;;;5053908;28;20457;-77
2023/09/22 09:15:42;;;;;;;2.90;1.83;;;;;;;;;;5061902;28;20460;-76
2023/09/22 09:18:11;;;;;;;3.70;2.77;;;;;;;;;;5062059;28;20447;-76
2023/09/22 09:20:40;;;;;;;2.10;1.43;;;;;;;;;;5060822;28;20481;-76
2023/09/22 09:23:19;;;;;;;1.83;1.50;;;;;;;;;;5061890;28;20469;-76
2023/09/22 09:25:47;;;;;;;1.97;1.63;;;;;;;;;;5053654;28;20475;-76
2023/09/22 09:28:14;;;;;;;2.10;1.67;;;;;;;;;;5053742;28;20499;-79
2023/09/22 09:30:51;;;;;;;1.70;1.43;;;;;;;;;;5058475;28;20564;-83
2023/09/22 09:33:18;;;;;;;1.57;1.10;;;;;;;;;;5057532;28;20477;-83
2023/09/22 09:35:45;;;;;;;1.50;1.10;;;;;;;;;;5059649;28;20445;-82
2023/09/22 09:38:13;;;;;;;1.70;1.30;;;;;;;;;;5058510;28;20480;-84
2023/09/22 09:40:42;;;;;;;2.73;1.70;;;;;;;;;;5069080;28;20470;-83
2023/09/22 09:43:13;;;;;;;2.30;1.70;;;;;;;;;;5077960;28;20524;-82
2023/09/22 09:45:43;;;;;;;2.37;1.40;;;;;;;;;;5077630;28;20895;-83
2023/09/22 09:48:14;;;;;;;1.77;1.30;;;;;;;;;;5077151;28;20495;-82
2023/09/22 09:50:42;;;;;;;1.50;1.20;;;;;;;;;;5076888;28;20476;-83
2023/09/22 09:53:14;;;;;;;3.20;1.40;;;;;;;;;;5077248;28;20471;-83
2023/09/22 09:55:43;;;;;;;2.10;1.43;;;;;;;;;;5077422;28;20458;-82
2023/09/22 09:58:12;;;;;;;3.73;1.37;;;;;;;;;;5077836;28;20440;-83
2023/09/22 10:00:42;;;;;;;1.50;1.10;;;;;;;;;;5078275;28;20468;-83
2023/09/22 10:03:09;;;;;;;3.80;2.47;;;;;;;;;;5077001;28;20452;-83
2023/09/22 10:05:37;;;;;;;2.10;1.80;;;;;;;;;;5076643;28;20850;-82
2023/09/22 10:08:06;;;;;;;1.80;1.33;;;;;;;;;;5077764;28;20475;-83
2023/09/22 10:10:38;;;;;;;2.73;2.10;;;;;;;;;;5077581;28;20478;-83
2023/09/22 10:13:07;;;;;;;1.50;1.27;;;;;;;;;;5077292;28;20480;-83
2023/09/22 10:15:51;;;;;;;1.60;1.40;;;;;;;;;;5077521;28;20456;-83
2023/09/22 10:18:18;;;;;;;1.87;1.57;;;;;;;;;;5076177;28;20436;-83
2023/09/22 10:20:46;;;;;;;2.23;1.53;;;;;;;;;;5075678;28;20474;-83
2023/09/22 10:23:17;;;;;;;2.53;1.27;;;;;;;;;;5075102;28;20535;-82
2023/09/22 10:25:45;;;;;;;2.00;1.50;;;;;;;;;;5076818;28;20448;-83
2023/09/22 10:28:27;;;;;;;2.10;1.20;;;;;;;;;;5076142;28;20488;-83
2023/09/22 10:31:04;;;;;;;2.37;1.60;;;;;;;;;;5077405;28;20555;-83
2023/09/22 10:33:32;;;;;;;1.57;1.30;;;;;;;;;;5077036;28;20451;-83
2023/09/22 10:35:59;;;;;;;1.77;1.20;;;;;;;;;;5077055;28;20456;-83
2023/09/22 10:38:27;;;;;;;3.03;1.20;;;;;;;;;;5076952;28;20448;-83
2023/09/22 10:41:09;;;;;;;2.00;1.20;;;;;;;;;;5076802;28;20573;-83
2023/09/22 10:43:56;;;;;;;1.80;1.47;;;;;;;;;;5074944;28;20551;-82
2023/09/22 10:46:24;;;;;;;1.93;1.10;;;;;;;;;;5082877;22;20492;-75
2023/09/22 10:48:51;;;;;;;1.97;1.50;;;;;;;;;;5072540;28;20468;-75
2023/09/22 10:51:18;;;;;;;2.00;1.57;;;;;;;;;;5071998;28;20472;-75
2023/09/22 10:53:55;;;;;;;1.60;1.30;;;;;;;;;;5072198;28;20452;-76
2023/09/22 10:56:24;;;;;;;3.77;1.30;;;;;;;;;;5072204;28;20454;-75
2023/09/22 10:58:53;;;;;;;1.80;1.53;;;;;;;;;;5072127;28;20452;-76
2023/09/22 11:01:22;;;;;;;2.10;1.70;;;;;;;;;;5054267;28;20555;-75
2023/09/22 11:03:53;;;;;;;1.90;1.47;;;;;;;;;;5036942;28;20870;-75
2023/09/22 11:06:21;;;;;;;3.10;1.57;;;;;;;;;;5043592;28;20454;-75
2023/09/22 11:08:50;;;;;;;1.53;1.23;;;;;;;;;;5032403;28;20493;-75
2023/09/22 11:11:18;;;;;;;2.20;1.27;;;;;;;;;;5032260;28;20544;-75
2023/09/22 11:13:52;;;;;;;1.60;1.13;;;;;;;;;;5052375;28;20950;-75
2023/09/22 11:16:20;;;;;;;2.37;1.30;;;;;;;;;;5069039;28;20450;-75
2023/09/22 11:18:48;;;;;;;1.90;1.40;;;;;;;;;;5071860;28;20444;-75
2023/09/22 11:21:16;;;;;;;2.00;1.20;;;;;;;;;;5063809;28;20961;-76
2023/09/22 11:23:43;;;;;;;1.77;1.33;;;;;;;;;;5071727;28;20455;-75
2023/09/22 11:26:12;;;;;;;1.83;1.30;;;;;;;;;;5072174;28;20758;-76
2023/09/22 11:28:41;;;;;;;2.03;1.50;;;;;;;;;;5063540;28;20578;-75
2023/09/22 11:31:14;;;;;;;1.63;1.20;;;;;;;;;;5056403;28;20476;-75
2023/09/22 11:33:42;;;;;;;2.10;1.23;;;;;;;;;;5051652;28;20452;-75
2023/09/22 11:36:09;;;;;;;2.00;1.30;;;;;;;;;;5059263;28;20448;-75
2023/09/22 11:38:39;;;;;;;1.73;1.27;;;;;;;;;;5052766;28;20448;-75
2023/09/22 11:41:09;;;;;;;1.53;1.23;;;;;;;;;;5058829;28;20472;-76
2023/09/22 11:43:40;;;;;;;2.17;1.20;;;;;;;;;;5062756;28;20907;-75
2023/09/22 11:46:08;;;;;;;1.90;1.40;;;;;;;;;;5062854;28;20458;-76
2023/09/22 11:48:51;;;;;;;2.17;1.37;;;;;;;;;;5056259;28;20496;-76
2023/09/22 11:51:19;;;;;;;1.93;1.40;;;;;;;;;;5063525;28;20469;-76
2023/09/22 11:53:46;;;;;;;2.03;1.50;;;;;;;;;;5047179;28;20894;-76
2023/09/22 11:56:13;;;;;;;1.40;1.00;;;;;;;;;;5063529;28;20445;-76
2023/09/22 11:58:41;;;;;;;2.43;1.50;;;;;;;;;;5055234;28;20826;-77
2023/09/22 12:01:09;;;;;;;1.83;1.23;;;;;;;;;;5055107;28;20457;-76
2023/09/22 12:03:36;;;;;;;2.17;1.57;;;;;;;;;;5072009;28;20467;-76
2023/09/22 12:06:03;;;;;;;1.83;1.60;;;;;;;;;;5063508;28;20463;-76
2023/09/22 12:08:32;;;;;;;2.70;1.53;;;;;;;;;;5063186;28;20483;-76
2023/09/22 12:11:00;;;;;;;1.60;1.30;;;;;;;;;;5052746;28;20898;-76
2023/09/22 12:13:28;;;;;;;1.93;1.50;;;;;;;;;;5050181;28;20453;-76
2023/09/22 12:15:55;;;;;;;2.70;2.07;;;;;;;;;;5061575;28;20455;-76
2023/09/22 12:18:23;;;;;;;2.47;1.63;;;;;;;;;;5062151;28;20510;-76
2023/09/22 12:20:50;;;;;;;4.80;1.40;;;;;;;;;;5039457;28;20472;-75
2023/09/22 12:23:17;;;;;;;3.90;1.50;;;;;;;;;;5062937;28;20475;-76
2023/09/22 12:25:45;;;;;;;2.30;1.40;;;;;;;;;;5047164;28;20931;-76
2023/09/22 12:28:12;;;;;;;3.70;1.43;;;;;;;;;;5062989;28;20456;-76
2023/09/22 12:30:40;;;;;;;1.50;1.20;;;;;;;;;;5054346;28;20500;-76
2023/09/22 12:33:07;;;;;;;2.53;1.60;;;;;;;;;;5055968;28;20465;-76
2023/09/22 12:35:34;;;;;;;2.20;1.60;;;;;;;;;;5061766;28;20971;-76
2023/09/22 12:38:01;;;;;;;2.17;1.67;;;;;;;;;;5056436;28;20553;-76
2023/09/22 12:40:28;;;;;;;3.50;1.70;;;;;;;;;;5044256;28;20478;-75
2023/09/22 12:42:57;;;;;;;2.20;1.70;;;;;;;;;;5054434;28;20460;-76
2023/09/22 12:45:24;;;;;;;2.10;1.80;;;;;;;;;;5061592;28;20456;-76
2023/09/22 12:47:51;;;;;;;3.53;1.80;;;;;;;;;;5034321;28;20476;-77
2023/09/22 12:50:18;;;;;;;1.70;1.50;;;;;;;;;;5042494;28;20898;-77
2023/09/22 12:52:45;;;;;;;3.30;2.30;;;;;;;;;;5062558;28;20464;-76
2023/09/22 12:55:12;;;;;;;3.80;1.87;;;;;;;;;;5060836;28;20460;-77
2023/09/22 12:57:40;;;;;;;3.70;2.33;;;;;;;;;;5046032;28;20456;-76
2023/09/22 13:00:11;;;;;;;6.23;2.50;;;;;;;;;;5062448;28;20990;-76
2023/09/22 13:02:39;;;;;;;2.10;1.90;;;;;;;;;;5062199;28;20476;-76
2023/09/22 13:05:07;;;;;;;6.57;1.80;;;;;;;;;;5055732;28;20521;-75
2023/09/22 13:07:34;;;;;;;3.00;2.37;;;;;;;;;;5061441;28;20512;-76
2023/09/22 13:10:05;;;;;;;3.50;1.97;;;;;;;;;;5055500;28;20553;-76
2023/09/22 13:12:32;;;;;;;5.30;2.10;;;;;;;;;;5052667;28;20461;-75
2023/09/22 13:14:59;;;;;;;3.70;2.43;;;;;;;;;;5060091;28;21005;-76
2023/09/22 13:17:28;;;;;;;4.10;2.73;;;;;;;;;;5037717;28;20454;-76
2023/09/22 13:19:55;;;;;;;2.70;1.67;;;;;;;;;;5052633;28;20796;-75
2023/09/22 13:22:22;;;;;;;2.10;1.67;;;;;;;;;;5056986;28;20460;-75
2023/09/22 13:24:50;;;;;;;3.50;2.20;;;;;;;;;;5061024;28;20452;-76
2023/09/22 13:27:17;;;;;;;2.60;2.40;;;;;;;;;;5053564;28;20831;-76
2023/09/22 13:29:44;;;;;;;2.50;2.10;;;;;;;;;;5048916;28;20497;-75
2023/09/22 13:32:11;;;;;;;2.30;2.10;;;;;;;;;;5057104;28;20776;-76
2023/09/22 13:34:39;;;;;;;3.03;1.80;;;;;;;;;;5048555;28;20455;-76
2023/09/22 13:37:08;;;;;;;2.23;1.97;;;;;;;;;;5066591;28;20452;-75
2023/09/22 13:39:36;;;;;;;2.67;2.00;;;;;;;;;;5049777;28;20461;-75
2023/09/22 13:42:03;;;;;;;4.30;3.40;;;;;;;;;;5066398;28;20505;-77
2023/09/22 13:44:32;;;;;;;3.13;2.73;;;;;;;;;;5064802;28;20478;-75
2023/09/22 13:46:59;;;;;;;4.60;2.43;;;;;;;;;;5055480;28;20508;-76
2023/09/22 13:49:26;;;;;;;3.80;2.67;;;;;;;;;;5042563;28;20503;-76
2023/09/22 13:51:55;;;;;;;7.10;3.00;;;;;;;;;;5056504;28;20808;-75
2023/09/22 13:54:22;;;;;;;4.03;2.70;;;;;;;;;;5050430;28;20453;-75
2023/09/22 13:56:50;;;;;;;3.10;2.80;;;;;;;;;;5057932;28;20455;-75
2023/09/22 13:59:18;;;;;;;5.77;2.50;;;;;;;;;;5039284;28;20480;-76
2023/09/22 14:01:46;;;;;;;3.57;2.23;;;;;;;;;;5057432;28;20504;-75
2023/09/22 14:04:13;;;;;;;2.77;2.30;;;;;;;;;;5049309;28;20463;-75
2023/09/22 14:06:40;;;;;;;6.73;2.30;;;;;;;;;;5060647;28;20477;-75
2023/09/22 14:09:09;;;;;;;5.50;2.40;;;;;;;;;;5060853;28;20463;-76
2023/09/22 14:11:36;;;;;;;2.40;1.60;;;;;;;;;;5052851;28;21048;-76
2023/09/22 14:14:03;;;;;;;3.07;1.70;;;;;;;;;;5061196;28;20452;-76
2023/09/22 14:16:30;;;;;;;2.43;1.80;;;;;;;;;;5054699;28;20485;-75
2023/09/22 14:18:58;;;;;;;2.57;1.90;;;;;;;;;;5058376;28;20456;-76
2023/09/22 14:21:25;;;;;;;3.97;1.77;;;;;;;;;;5051237;28;20980;-77
2023/09/22 14:23:52;;;;;;;2.53;1.57;;;;;;;;;;5045881;28;20461;-76
2023/09/22 14:26:21;;;;;;;2.57;1.90;;;;;;;;;;5050772;28;20461;-77
2023/09/22 14:28:48;;;;;;;2.70;1.53;;;;;;;;;;5055271;28;20838;-76
2023/09/22 14:31:15;;;;;;;2.13;1.70;;;;;;;;;;5056694;28;20506;-76
2023/09/22 14:33:44;;;;;;;5.97;1.40;;;;;;;;;;5044445;28;20495;-76
2023/09/22 14:36:11;;;;;;;2.43;1.50;;;;;;;;;;5059657;28;20462;-77
2023/09/22 14:38:38;;;;;;;1.77;1.50;;;;;;;;;;5036046;28;20453;-76
2023/09/22 14:41:07;;;;;;;1.90;1.30;;;;;;;;;;5052079;28;20472;-76
2023/09/22 14:43:36;;;;;;;2.00;1.40;;;;;;;;;;5057944;28;20485;-76
2023/09/22 14:46:05;;;;;;;3.87;2.03;;;;;;;;;;5038706;28;20464;-76
2023/09/22 14:48:32;;;;;;;2.00;1.50;;;;;;;;;;5057965;28;20482;-76